sensor_id;sensor_type;location;lat;lon;timestamp;pressure;altitude;pressure_sealevel;temperature;humidity
12624;BME280;6377;42.836;23.998;2024-01-30T00:00:16;97707.78;;;0.53;98.30
12624;BME280;6377;42.836;23.998;2024-01-30T00:02:47;97694.38;;;0.23;98.82
12624;BME280;6377;42.836;23.998;2024-01-30T00:05:15;97710.50;;;0.31;98.62
12624;BME280;6377;42.836;23.998;2024-01-30T00:07:43;97732.53;;;0.63;98.59
12624;BME280;6377;42.836;23.998;2024-01-30T00:10:10;97719.72;;;0.59;97.60
12624;BME280;6377;42.836;23.998;2024-01-30T00:12:38;97692.56;;;0.64;97.41
12624;BME280;6377;42.836;23.998;2024-01-30T00:15:05;97730.72;;;0.84;95.67
12624;BME280;6377;42.836;23.998;2024-01-30T00:17:37;97733.25;;;0.85;94.88
12624;BME280;6377;42.836;23.998;2024-01-30T00:20:06;97706.66;;;0.79;93.70
12624;BME280;6377;42.836;23.998;2024-01-30T00:22:35;97698.91;;;0.77;92.90
12624;BME280;6377;42.836;23.998;2024-01-30T00:25:03;97710.66;;;0.67;93.19
12624;BME280;6377;42.836;23.998;2024-01-30T00:27:32;97697.09;;;0.59;92.25
12624;BME280;6377;42.836;23.998;2024-01-30T00:30:00;97720.13;;;0.68;92.70
12624;BME280;6377;42.836;23.998;2024-01-30T00:32:32;97701.75;;;0.52;91.01
12624;BME280;6377;42.836;23.998;2024-01-30T00:35:15;97717.94;;;0.59;90.33
12624;BME280;6377;42.836;23.998;2024-01-30T00:37:43;97739.53;;;0.81;90.13
12624;BME280;6377;42.836;23.998;2024-01-30T00:40:22;97704.25;;;0.55;87.50
12624;BME280;6377;42.836;23.998;2024-01-30T00:42:53;97722.56;;;0.73;86.08
12624;BME280;6377;42.836;23.998;2024-01-30T00:45:26;97696.28;;;0.59;86.89
12624;BME280;6377;42.836;23.998;2024-01-30T00:47:54;97728.69;;;0.90;86.03
12624;BME280;6377;42.836;23.998;2024-01-30T00:50:26;97697.63;;;0.67;84.88
12624;BME280;6377;42.836;23.998;2024-01-30T00:52:55;97708.19;;;0.64;84.96
12624;BME280;6377;42.836;23.998;2024-01-30T00:55:23;97726.63;;;0.78;85.23
12624;BME280;6377;42.836;23.998;2024-01-30T00:57:51;97699.38;;;0.67;85.02
12624;BME280;6377;42.836;23.998;2024-01-30T01:00:24;97695.50;;;0.56;83.07
12624;BME280;6377;42.836;23.998;2024-01-30T01:02:54;97738.13;;;0.93;82.45
12624;BME280;6377;42.836;23.998;2024-01-30T01:05:26;97690.72;;;0.66;81.35
12624;BME280;6377;42.836;23.998;2024-01-30T01:07:54;97720.59;;;0.78;81.71
12624;BME280;6377;42.836;23.998;2024-01-30T01:10:25;97651.34;;;0.35;81.71
12624;BME280;6377;42.836;23.998;2024-01-30T01:12:54;97691.44;;;0.70;82.97
12624;BME280;6377;42.836;23.998;2024-01-30T01:15:21;97687.72;;;0.75;81.79
12624;BME280;6377;42.836;23.998;2024-01-30T01:17:49;97667.69;;;0.57;82.37
12624;BME280;6377;42.836;23.998;2024-01-30T01:20:17;97679.59;;;0.63;81.91
12624;BME280;6377;42.836;23.998;2024-01-30T01:22:49;97722.91;;;0.84;82.09
12624;BME280;6377;42.836;23.998;2024-01-30T01:25:21;97677.00;;;0.63;82.40
12624;BME280;6377;42.836;23.998;2024-01-30T01:28:01;97682.16;;;0.64;83.01
12624;BME280;6377;42.836;23.998;2024-01-30T01:30:31;97685.50;;;0.66;83.36
12624;BME280;6377;42.836;23.998;2024-01-30T01:32:59;97702.50;;;0.75;81.57
12624;BME280;6377;42.836;23.998;2024-01-30T01:35:28;97692.84;;;0.77;80.40
12624;BME280;6377;42.836;23.998;2024-01-30T01:37:58;97706.53;;;0.82;77.21
12624;BME280;6377;42.836;23.998;2024-01-30T01:40:33;97688.84;;;0.70;76.67
12624;BME280;6377;42.836;23.998;2024-01-30T01:43:03;97731.59;;;0.84;76.26
12624;BME280;6377;42.836;23.998;2024-01-30T01:45:32;97679.47;;;0.66;76.93
12624;BME280;6377;42.836;23.998;2024-01-30T01:48:00;97735.44;;;0.94;76.21
12624;BME280;6377;42.836;23.998;2024-01-30T01:50:28;97686.84;;;0.75;74.53
12624;BME280;6377;42.836;23.998;2024-01-30T01:52:58;97733.28;;;1.04;73.74
12624;BME280;6377;42.836;23.998;2024-01-30T01:55:26;97729.41;;;0.94;72.90
12624;BME280;6377;42.836;23.998;2024-01-30T01:57:56;97754.22;;;1.02;71.20
12624;BME280;6377;42.836;23.998;2024-01-30T02:00:28;97672.00;;;0.58;72.22
12624;BME280;6377;42.836;23.998;2024-01-30T02:02:57;97702.13;;;0.64;72.46
12624;BME280;6377;42.836;23.998;2024-01-30T02:05:26;97644.31;;;0.37;72.95
12624;BME280;6377;42.836;23.998;2024-01-30T02:07:54;97743.06;;;0.99;71.91
12624;BME280;6377;42.836;23.998;2024-01-30T02:10:26;97735.53;;;0.93;70.75
12624;BME280;6377;42.836;23.998;2024-01-30T02:12:57;97705.94;;;0.75;69.76
12624;BME280;6377;42.836;23.998;2024-01-30T02:15:25;97723.94;;;0.80;70.83
12624;BME280;6377;42.836;23.998;2024-01-30T02:17:55;97689.97;;;0.64;71.75
12624;BME280;6377;42.836;23.998;2024-01-30T02:20:24;97740.25;;;1.03;72.70
12624;BME280;6377;42.836;23.998;2024-01-30T02:22:57;97687.84;;;0.72;72.16
12624;BME280;6377;42.836;23.998;2024-01-30T02:25:44;97734.03;;;1.06;67.79
12624;BME280;6377;42.836;23.998;2024-01-30T02:28:13;97717.84;;;0.81;66.92
12624;BME280;6377;42.836;23.998;2024-01-30T02:30:42;97696.66;;;0.70;67.99
12624;BME280;6377;42.836;23.998;2024-01-30T02:33:10;97703.47;;;0.72;67.12
12624;BME280;6377;42.836;23.998;2024-01-30T02:35:41;97730.50;;;0.88;66.34
12624;BME280;6377;42.836;23.998;2024-01-30T02:38:13;97722.63;;;0.90;66.82
12624;BME280;6377;42.836;23.998;2024-01-30T02:40:41;97753.69;;;1.13;65.64
12624;BME280;6377;42.836;23.998;2024-01-30T02:43:12;97729.06;;;1.01;64.04
12624;BME280;6377;42.836;23.998;2024-01-30T02:45:40;97747.78;;;1.09;64.34
12624;BME280;6377;42.836;23.998;2024-01-30T02:48:08;97703.50;;;0.91;64.55
12624;BME280;6377;42.836;23.998;2024-01-30T02:50:36;97751.59;;;1.21;64.74
12624;BME280;6377;42.836;23.998;2024-01-30T02:53:07;97689.81;;;0.86;63.63
12624;BME280;6377;42.836;23.998;2024-01-30T02:55:36;97699.81;;;0.95;64.77
12624;BME280;6377;42.836;23.998;2024-01-30T02:58:11;97723.34;;;0.93;66.37
12624;BME280;6377;42.836;23.998;2024-01-30T03:00:48;97732.50;;;1.02;67.46
12624;BME280;6377;42.836;23.998;2024-01-30T03:03:30;97743.38;;;1.11;66.07
12624;BME280;6377;42.836;23.998;2024-01-30T03:06:02;97685.97;;;0.76;66.45
12624;BME280;6377;42.836;23.998;2024-01-30T03:08:30;97719.47;;;0.83;67.23
12624;BME280;6377;42.836;23.998;2024-01-30T03:10:59;97694.31;;;0.64;67.27
12624;BME280;6377;42.836;23.998;2024-01-30T03:13:28;97697.78;;;0.83;67.42
12624;BME280;6377;42.836;23.998;2024-01-30T03:15:55;97703.63;;;0.88;67.41
12624;BME280;6377;42.836;23.998;2024-01-30T03:18:23;97695.72;;;0.89;68.96
12624;BME280;6377;42.836;23.998;2024-01-30T03:20:53;97712.06;;;0.93;66.09
12624;BME280;6377;42.836;23.998;2024-01-30T03:23:21;97683.13;;;0.80;64.93
12624;BME280;6377;42.836;23.998;2024-01-30T03:25:49;97690.75;;;0.85;63.31
12624;BME280;6377;42.836;23.998;2024-01-30T03:28:19;97688.19;;;0.83;63.95
12624;BME280;6377;42.836;23.998;2024-01-30T03:30:46;97698.97;;;0.76;63.74
12624;BME280;6377;42.836;23.998;2024-01-30T03:33:17;97714.75;;;0.91;62.49
12624;BME280;6377;42.836;23.998;2024-01-30T03:35:51;97736.28;;;0.95;62.71
12624;BME280;6377;42.836;23.998;2024-01-30T03:38:22;97698.03;;;0.77;63.04
12624;BME280;6377;42.836;23.998;2024-01-30T03:41:27;97734.97;;;1.05;62.53
12624;BME280;6377;42.836;23.998;2024-01-30T03:44:53;97735.25;;;0.99;62.27
12624;BME280;6377;42.836;23.998;2024-01-30T03:47:47;97733.69;;;0.95;62.67
12624;BME280;6377;42.836;23.998;2024-01-30T03:50:18;97438.22;;;-0.85;62.68
12624;BME280;6377;42.836;23.998;2024-01-30T03:52:46;97673.47;;;0.64;63.05
12624;BME280;6377;42.836;23.998;2024-01-30T03:55:14;97707.50;;;0.79;64.25
12624;BME280;6377;42.836;23.998;2024-01-30T03:57:48;97719.72;;;0.77;64.06
12624;BME280;6377;42.836;23.998;2024-01-30T04:00:21;97670.78;;;0.46;63.62
12624;BME280;6377;42.836;23.998;2024-01-30T04:02:49;97679.88;;;0.56;63.65
12624;BME280;6377;42.836;23.998;2024-01-30T04:05:17;97676.69;;;0.50;64.73
12624;BME280;6377;42.836;23.998;2024-01-30T04:08:04;97687.25;;;0.47;64.18
12624;BME280;6377;42.836;23.998;2024-01-30T04:10:52;97676.78;;;0.48;65.32
12624;BME280;6377;42.836;23.998;2024-01-30T04:13:23;97696.22;;;0.60;65.25
12624;BME280;6377;42.836;23.998;2024-01-30T04:15:52;97680.81;;;0.55;65.95
12624;BME280;6377;42.836;23.998;2024-01-30T04:18:24;97678.97;;;0.57;65.12
12624;BME280;6377;42.836;23.998;2024-01-30T04:20:52;97688.22;;;0.65;63.71
12624;BME280;6377;42.836;23.998;2024-01-30T04:23:19;97689.75;;;0.69;63.86
12624;BME280;6377;42.836;23.998;2024-01-30T04:25:47;97713.47;;;0.81;62.98
12624;BME280;6377;42.836;23.998;2024-01-30T04:28:15;97664.66;;;0.47;62.74
12624;BME280;6377;42.836;23.998;2024-01-30T04:30:43;97723.94;;;0.80;63.76
12624;BME280;6377;42.836;23.998;2024-01-30T04:33:15;97695.22;;;0.63;63.88
12624;BME280;6377;42.836;23.998;2024-01-30T04:35:44;97676.34;;;0.57;64.22
12624;BME280;6377;42.836;23.998;2024-01-30T04:38:11;97697.28;;;0.75;62.50
12624;BME280;6377;42.836;23.998;2024-01-30T04:40:40;97686.84;;;0.75;62.02
12624;BME280;6377;42.836;23.998;2024-01-30T04:43:11;97702.31;;;0.79;61.77
12624;BME280;6377;42.836;23.998;2024-01-30T04:45:39;97681.50;;;0.78;62.27
12624;BME280;6377;42.836;23.998;2024-01-30T04:48:06;97708.53;;;0.75;61.13
12624;BME280;6377;42.836;23.998;2024-01-30T04:50:35;97749.53;;;1.09;61.50
12624;BME280;6377;42.836;23.998;2024-01-30T04:53:03;97761.09;;;1.03;61.33
12624;BME280;6377;42.836;23.998;2024-01-30T04:55:31;97705.94;;;0.75;61.01
12624;BME280;6377;42.836;23.998;2024-01-30T04:57:59;97684.81;;;0.63;60.75
12624;BME280;6377;42.836;23.998;2024-01-30T05:00:27;97747.06;;;1.06;60.79
12624;BME280;6377;42.836;23.998;2024-01-30T05:03:22;97745.19;;;1.09;61.02
12624;BME280;6377;42.836;23.998;2024-01-30T05:06:30;97749.31;;;0.95;60.90
12624;BME280;6377;42.836;23.998;2024-01-30T05:08:57;97701.91;;;0.68;60.89
12624;BME280;6377;42.836;23.998;2024-01-30T05:11:28;97683.59;;;0.51;60.62
12624;BME280;6377;42.836;23.998;2024-01-30T05:14:01;97662.75;;;0.32;60.84
12624;BME280;6377;42.836;23.998;2024-01-30T05:16:36;97710.78;;;0.64;61.88
12624;BME280;6377;42.836;23.998;2024-01-30T05:19:12;97706.72;;;0.59;62.21
12624;BME280;6377;42.836;23.998;2024-01-30T05:21:44;97769.31;;;0.94;62.46
12624;BME280;6377;42.836;23.998;2024-01-30T05:24:12;97724.34;;;0.52;62.46
12624;BME280;6377;42.836;23.998;2024-01-30T05:26:43;97724.72;;;0.63;63.69
12624;BME280;6377;42.836;23.998;2024-01-30T05:29:14;97723.09;;;0.61;64.07
12624;BME280;6377;42.836;23.998;2024-01-30T05:31:44;97730.91;;;0.61;65.47
12624;BME280;6377;42.836;23.998;2024-01-30T05:34:16;97692.47;;;0.47;65.38
12624;BME280;6377;42.836;23.998;2024-01-30T05:36:48;97731.34;;;0.70;65.85
12624;BME280;6377;42.836;23.998;2024-01-30T05:39:16;97671.19;;;0.37;67.14
12624;BME280;6377;42.836;23.998;2024-01-30T05:41:46;97721.91;;;0.68;68.23
12624;BME280;6377;42.836;23.998;2024-01-30T05:44:20;97744.44;;;0.69;67.78
12624;BME280;6377;42.836;23.998;2024-01-30T05:46:54;97756.66;;;0.87;67.27
12624;BME280;6377;42.836;23.998;2024-01-30T05:49:22;97762.69;;;0.87;67.86
12624;BME280;6377;42.836;23.998;2024-01-30T05:51:54;97738.25;;;0.71;67.92
12624;BME280;6377;42.836;23.998;2024-01-30T05:54:22;97749.22;;;0.78;68.52
12624;BME280;6377;42.836;23.998;2024-01-30T05:56:50;97715.28;;;0.61;69.30
12624;BME280;6377;42.836;23.998;2024-01-30T05:59:19;97729.75;;;0.86;66.91
12624;BME280;6377;42.836;23.998;2024-01-30T06:01:47;97770.66;;;1.03;66.03
12624;BME280;6377;42.836;23.998;2024-01-30T06:04:17;97725.75;;;0.79;64.97
12624;BME280;6377;42.836;23.998;2024-01-30T06:06:45;97723.47;;;0.72;64.95
12624;BME280;6377;42.836;23.998;2024-01-30T06:09:15;97770.66;;;1.03;64.75
12624;BME280;6377;42.836;23.998;2024-01-30T06:11:42;97765.25;;;1.07;64.97
12624;BME280;6377;42.836;23.998;2024-01-30T06:14:16;97740.56;;;0.77;63.00
12624;BME280;6377;42.836;23.998;2024-01-30T06:16:58;97734.66;;;0.74;62.54
12624;BME280;6377;42.836;23.998;2024-01-30T06:19:29;97722.06;;;0.65;62.85
12624;BME280;6377;42.836;23.998;2024-01-30T06:21:59;97710.25;;;0.56;63.34
12624;BME280;6377;42.836;23.998;2024-01-30T06:24:31;97706.03;;;0.53;62.50
12624;BME280;6377;42.836;23.998;2024-01-30T06:27:07;97722.06;;;0.65;62.45
12624;BME280;6377;42.836;23.998;2024-01-30T06:29:38;97727.94;;;0.68;60.76
12624;BME280;6377;42.836;23.998;2024-01-30T06:32:07;97774.97;;;1.04;60.87
12624;BME280;6377;42.836;23.998;2024-01-30T06:34:36;97799.91;;;1.09;61.11
12624;BME280;6377;42.836;23.998;2024-01-30T06:37:09;97724.03;;;0.78;59.68
12624;BME280;6377;42.836;23.998;2024-01-30T06:39:41;97728.88;;;0.86;59.31
12624;BME280;6377;42.836;23.998;2024-01-30T06:42:12;97763.56;;;1.06;59.42
12624;BME280;6377;42.836;23.998;2024-01-30T06:44:40;97732.16;;;0.91;58.92
12624;BME280;6377;42.836;23.998;2024-01-30T06:47:08;97759.47;;;1.01;59.03
12624;BME280;6377;42.836;23.998;2024-01-30T06:49:39;97784.19;;;1.30;57.88
12624;BME280;6377;42.836;23.998;2024-01-30T06:52:32;97737.63;;;1.03;59.35
12624;BME280;6377;42.836;23.998;2024-01-30T06:55:14;97748.13;;;1.02;59.89
12624;BME280;6377;42.836;23.998;2024-01-30T06:57:48;97739.75;;;0.95;60.02
12624;BME280;6377;42.836;23.998;2024-01-30T07:00:33;97809.28;;;1.32;60.85
12624;BME280;6377;42.836;23.998;2024-01-30T07:03:08;97740.31;;;1.02;61.40
12624;BME280;6377;42.836;23.998;2024-01-30T07:05:42;97805.50;;;1.39;61.65
12624;BME280;6377;42.836;23.998;2024-01-30T07:08:22;97762.50;;;1.10;61.20
12624;BME280;6377;42.836;23.998;2024-01-30T07:11:11;97795.97;;;1.38;62.48
12624;BME280;6377;42.836;23.998;2024-01-30T07:16:32;97789.28;;;1.51;63.78
12624;BME280;6377;42.836;23.998;2024-01-30T07:19:00;97766.38;;;1.21;63.34
12624;BME280;6377;42.836;23.998;2024-01-30T07:21:27;97750.53;;;1.25;62.56
12624;BME280;6377;42.836;23.998;2024-01-30T07:23:57;97749.63;;;1.26;62.18
12624;BME280;6377;42.836;23.998;2024-01-30T07:26:27;97748.41;;;1.14;62.47
12624;BME280;6377;42.836;23.998;2024-01-30T07:28:54;97767.88;;;1.26;63.44
12624;BME280;6377;42.836;23.998;2024-01-30T07:31:22;97755.75;;;1.25;64.64
12624;BME280;6377;42.836;23.998;2024-01-30T07:33:50;97772.78;;;1.32;66.66
12624;BME280;6377;42.836;23.998;2024-01-30T07:36:17;97762.78;;;1.42;65.88
12624;BME280;6377;42.836;23.998;2024-01-30T07:38:45;97789.31;;;1.68;65.79
12624;BME280;6377;42.836;23.998;2024-01-30T07:41:12;97559.59;;;0.30;64.83
12624;BME280;6377;42.836;23.998;2024-01-30T07:43:43;97743.63;;;1.43;64.26
12624;BME280;6377;42.836;23.998;2024-01-30T07:46:10;97772.22;;;1.63;63.71
12624;BME280;6377;42.836;23.998;2024-01-30T07:48:38;97727.34;;;1.38;63.98
12624;BME280;6377;42.836;23.998;2024-01-30T07:51:05;97739.72;;;1.51;63.80
12624;BME280;6377;42.836;23.998;2024-01-30T07:53:33;97790.31;;;1.85;63.93
12624;BME280;6377;42.836;23.998;2024-01-30T07:56:01;97736.41;;;1.48;63.87
12624;BME280;6377;42.836;23.998;2024-01-30T07:58:28;97706.78;;;1.32;65.75
12624;BME280;6377;42.836;23.998;2024-01-30T08:00:58;97763.81;;;1.75;66.00
12624;BME280;6377;42.836;23.998;2024-01-30T08:03:26;97747.69;;;1.67;65.23
12624;BME280;6377;42.836;23.998;2024-01-30T08:05:54;97773.00;;;1.82;65.59
12624;BME280;6377;42.836;23.998;2024-01-30T08:08:22;97790.91;;;1.90;66.52
12624;BME280;6377;42.836;23.998;2024-01-30T08:10:49;97748.59;;;1.66;66.81
12624;BME280;6377;42.836;23.998;2024-01-30T08:13:16;97751.06;;;1.69;67.85
12624;BME280;6377;42.836;23.998;2024-01-30T08:15:44;97738.78;;;1.71;67.22
12624;BME280;6377;42.836;23.998;2024-01-30T08:18:16;97707.25;;;1.58;67.45
12624;BME280;6377;42.836;23.998;2024-01-30T08:20:43;97758.34;;;1.80;64.84
12624;BME280;6377;42.836;23.998;2024-01-30T08:23:10;97747.91;;;1.80;63.64
12624;BME280;6377;42.836;23.998;2024-01-30T08:25:38;97716.22;;;1.70;62.18
12624;BME280;6377;42.836;23.998;2024-01-30T08:28:05;97738.63;;;1.74;62.35
12624;BME280;6377;42.836;23.998;2024-01-30T08:30:36;97735.94;;;1.76;63.47
12624;BME280;6377;42.836;23.998;2024-01-30T08:33:07;97740.38;;;1.74;62.63
12624;BME280;6377;42.836;23.998;2024-01-30T08:35:36;97740.88;;;1.82;61.83
12624;BME280;6377;42.836;23.998;2024-01-30T08:38:04;97775.97;;;2.10;61.19
12624;BME280;6377;42.836;23.998;2024-01-30T08:40:31;97735.56;;;1.83;61.38
12624;BME280;6377;42.836;23.998;2024-01-30T08:42:59;97746.84;;;1.84;61.47
12624;BME280;6377;42.836;23.998;2024-01-30T08:45:26;97742.41;;;1.86;61.19
12624;BME280;6377;42.836;23.998;2024-01-30T08:47:54;97769.06;;;2.09;61.63
12624;BME280;6377;42.836;23.998;2024-01-30T08:50:21;97757.41;;;1.99;60.28
12624;BME280;6377;42.836;23.998;2024-01-30T08:52:50;97752.09;;;2.01;59.62
12624;BME280;6377;42.836;23.998;2024-01-30T08:55:17;97787.34;;;2.26;59.18
12624;BME280;6377;42.836;23.998;2024-01-30T08:57:45;97726.75;;;1.86;58.32
12624;BME280;6377;42.836;23.998;2024-01-30T09:00:13;97744.72;;;1.92;57.53
12624;BME280;6377;42.836;23.998;2024-01-30T09:02:40;97740.19;;;1.95;57.80
12624;BME280;6377;42.836;23.998;2024-01-30T09:05:08;97744.66;;;2.10;57.65
12624;BME280;6377;42.836;23.998;2024-01-30T09:07:35;97616.16;;;1.37;57.00
12624;BME280;6377;42.836;23.998;2024-01-30T09:10:06;97789.03;;;2.45;56.41
12624;BME280;6377;42.836;23.998;2024-01-30T09:12:34;97759.03;;;2.19;56.19
12624;BME280;6377;42.836;23.998;2024-01-30T09:15:01;97728.16;;;1.93;55.82
12624;BME280;6377;42.836;23.998;2024-01-30T09:17:29;97731.50;;;1.95;55.58
12624;BME280;6377;42.836;23.998;2024-01-30T09:19:56;97742.34;;;2.04;55.74
12624;BME280;6377;42.836;23.998;2024-01-30T09:22:24;97750.78;;;1.92;55.34
12624;BME280;6377;42.836;23.998;2024-01-30T09:24:51;97674.25;;;1.57;54.69
12624;BME280;6377;42.836;23.998;2024-01-30T09:27:21;97700.75;;;1.84;54.59
12624;BME280;6377;42.836;23.998;2024-01-30T09:29:51;97734.88;;;1.97;54.51
12624;BME280;6377;42.836;23.998;2024-01-30T09:32:19;97732.47;;;1.94;53.93
12624;BME280;6377;42.836;23.998;2024-01-30T09:34:46;97768.41;;;2.23;54.38
12624;BME280;6377;42.836;23.998;2024-01-30T09:37:14;97781.75;;;2.17;54.05
12624;BME280;6377;42.836;23.998;2024-01-30T09:39:43;97741.34;;;2.07;53.82
12624;BME280;6377;42.836;23.998;2024-01-30T09:42:18;97730.16;;;2.05;53.59
12624;BME280;6377;42.836;23.998;2024-01-30T09:44:50;97743.97;;;2.07;54.13
12624;BME280;6377;42.836;23.998;2024-01-30T09:47:21;97721.94;;;1.95;52.65
12624;BME280;6377;42.836;23.998;2024-01-30T09:49:52;97729.59;;;1.98;52.34
12624;BME280;6377;42.836;23.998;2024-01-30T09:52:26;97732.97;;;2.00;53.07
12624;BME280;6377;42.836;23.998;2024-01-30T09:55:31;97773.28;;;2.29;52.33
12624;BME280;6377;42.836;23.998;2024-01-30T10:04:59;97769.69;;;2.32;52.20
12624;BME280;6377;42.836;23.998;2024-01-30T10:16:15;97786.81;;;2.20;52.64
12624;BME280;6377;42.836;23.998;2024-01-30T10:18:43;97719.06;;;1.83;53.04
12624;BME280;6377;42.836;23.998;2024-01-30T10:21:12;97755.38;;;1.87;52.58
12624;BME280;6377;42.836;23.998;2024-01-30T10:23:40;97740.59;;;2.05;52.64
12624;BME280;6377;42.836;23.998;2024-01-30T10:26:07;97732.81;;;2.03;52.20
12624;BME280;6377;42.836;23.998;2024-01-30T10:28:34;97742.59;;;2.17;52.35
12624;BME280;6377;42.836;23.998;2024-01-30T10:31:02;97778.44;;;2.48;52.35
12624;BME280;6377;42.836;23.998;2024-01-30T10:33:31;97732.66;;;2.23;52.41
12624;BME280;6377;42.836;23.998;2024-01-30T10:36:01;97757.69;;;2.45;52.00
12624;BME280;6377;42.836;23.998;2024-01-30T10:38:30;97766.94;;;2.52;51.78
12624;BME280;6377;42.836;23.998;2024-01-30T10:40:59;97723.06;;;2.41;52.35
12624;BME280;6377;42.836;23.998;2024-01-30T10:43:31;97764.78;;;2.93;51.34
12624;BME280;6377;42.836;23.998;2024-01-30T10:46:05;97758.75;;;2.75;51.30
12624;BME280;6377;42.836;23.998;2024-01-30T10:48:36;97701.16;;;2.44;50.91
12624;BME280;6377;42.836;23.998;2024-01-30T10:51:09;97768.25;;;2.93;51.39
12624;BME280;6377;42.836;23.998;2024-01-30T10:53:39;97758.44;;;2.97;51.30
12624;BME280;6377;42.836;23.998;2024-01-30T10:56:08;97747.28;;;3.10;51.56
12624;BME280;6377;42.836;23.998;2024-01-30T10:58:37;97693.69;;;2.86;51.08
12624;BME280;6377;42.836;23.998;2024-01-30T11:01:05;97667.91;;;2.96;50.03
12624;BME280;6377;42.836;23.998;2024-01-30T11:03:33;97686.22;;;3.27;49.54
12624;BME280;6377;42.836;23.998;2024-01-30T11:06:03;97712.84;;;3.65;49.25
12624;BME280;6377;42.836;23.998;2024-01-30T11:08:32;97705.59;;;3.70;49.00
12624;BME280;6377;42.836;23.998;2024-01-30T11:11:09;97553.94;;;3.53;48.02
12624;BME280;6377;42.836;23.998;2024-01-30T11:13:36;97687.75;;;4.64;47.67
12624;BME280;6377;42.836;23.998;2024-01-30T11:16:05;97693.19;;;5.03;47.13
12624;BME280;6377;42.836;23.998;2024-01-30T11:18:33;97613.38;;;4.67;45.93
12624;BME280;6377;42.836;23.998;2024-01-30T11:21:05;97655.47;;;5.33;46.27
12624;BME280;6377;42.836;23.998;2024-01-30T11:23:33;97665.19;;;5.72;45.27
12624;BME280;6377;42.836;23.998;2024-01-30T11:26:04;97651.50;;;5.93;44.33
12624;BME280;6377;42.836;23.998;2024-01-30T11:28:34;97688.81;;;6.50;43.96
12624;BME280;6377;42.836;23.998;2024-01-30T11:31:05;97636.97;;;6.65;43.24
12624;BME280;6377;42.836;23.998;2024-01-30T11:33:34;97709.63;;;7.04;42.88
12624;BME280;6377;42.836;23.998;2024-01-30T11:36:01;97697.13;;;6.95;42.71
12624;BME280;6377;42.836;23.998;2024-01-30T11:38:29;97700.69;;;6.94;42.61
12624;BME280;6377;42.836;23.998;2024-01-30T11:40:56;97566.19;;;5.99;42.78
12624;BME280;6377;42.836;23.998;2024-01-30T11:43:25;97700.38;;;6.73;42.88
12624;BME280;6377;42.836;23.998;2024-01-30T11:45:52;97681.34;;;6.57;42.82
12624;BME280;6377;42.836;23.998;2024-01-30T11:48:19;97708.97;;;6.37;43.70
12624;BME280;6377;42.836;23.998;2024-01-30T11:50:48;97731.09;;;6.08;43.72
12624;BME280;6377;42.836;23.998;2024-01-30T11:53:17;97691.50;;;5.43;44.44
12624;BME280;6377;42.836;23.998;2024-01-30T11:55:49;97702.22;;;5.67;45.33
12624;BME280;6377;42.836;23.998;2024-01-30T11:58:17;97636.22;;;5.05;44.67
12624;BME280;6377;42.836;23.998;2024-01-30T12:00:54;97644.59;;;4.98;45.66
12624;BME280;6377;42.836;23.998;2024-01-30T12:03:21;97619.34;;;4.69;46.27
12624;BME280;6377;42.836;23.998;2024-01-30T12:05:55;97687.41;;;4.98;47.18
12624;BME280;6377;42.836;23.998;2024-01-30T12:08:23;97637.50;;;4.72;47.27
12624;BME280;6377;42.836;23.998;2024-01-30T12:10:55;97684.31;;;4.92;47.87
12624;BME280;6377;42.836;23.998;2024-01-30T12:13:23;97682.06;;;4.72;47.70
12624;BME280;6377;42.836;23.998;2024-01-30T12:15:51;97651.72;;;4.68;48.47
12624;BME280;6377;42.836;23.998;2024-01-30T12:18:20;97682.97;;;4.85;49.20
12624;BME280;6377;42.836;23.998;2024-01-30T12:20:57;97651.91;;;4.50;49.51
12624;BME280;6377;42.836;23.998;2024-01-30T12:23:24;97671.47;;;4.31;49.57
12624;BME280;6377;42.836;23.998;2024-01-30T12:25:52;97687.91;;;4.19;49.97
12624;BME280;6377;42.836;23.998;2024-01-30T12:28:20;97631.13;;;3.75;50.73
12624;BME280;6377;42.836;23.998;2024-01-30T12:30:47;97632.31;;;3.70;51.09
12624;BME280;6377;42.836;23.998;2024-01-30T12:33:19;97632.72;;;3.78;50.96
12624;BME280;6377;42.836;23.998;2024-01-30T12:35:47;97592.13;;;3.41;50.93
12624;BME280;6377;42.836;23.998;2024-01-30T12:38:14;97671.03;;;3.79;51.58
12624;BME280;6377;42.836;23.998;2024-01-30T12:40:41;97634.13;;;3.38;51.82
12624;BME280;6377;42.836;23.998;2024-01-30T12:43:09;97626.97;;;3.26;52.46
12624;BME280;6377;42.836;23.998;2024-01-30T12:45:36;97619.16;;;2.95;52.33
12624;BME280;6377;42.836;23.998;2024-01-30T12:48:05;97557.69;;;2.56;52.42
12624;BME280;6377;42.836;23.998;2024-01-30T12:50:34;97640.91;;;2.95;52.31
12624;BME280;6377;42.836;23.998;2024-01-30T12:53:01;97610.41;;;2.96;52.51
12624;BME280;6377;42.836;23.998;2024-01-30T12:55:29;97645.66;;;3.20;52.58
12624;BME280;6377;42.836;23.998;2024-01-30T12:57:56;97658.56;;;3.07;52.68
12624;BME280;6377;42.836;23.998;2024-01-30T13:00:23;97650.28;;;3.15;52.53
12624;BME280;6377;42.836;23.998;2024-01-30T13:02:51;97640.66;;;3.00;52.55
12624;BME280;6377;42.836;23.998;2024-01-30T13:05:18;97608.53;;;2.66;53.25
12624;BME280;6377;42.836;23.998;2024-01-30T13:07:47;97584.16;;;2.50;52.74
12624;BME280;6377;42.836;23.998;2024-01-30T13:10:15;97632.88;;;2.82;52.99
12624;BME280;6377;42.836;23.998;2024-01-30T13:12:42;97576.75;;;2.43;52.34
12624;BME280;6377;42.836;23.998;2024-01-30T13:15:10;97598.31;;;2.62;52.54
12624;BME280;6377;42.836;23.998;2024-01-30T13:17:38;97657.28;;;2.99;52.52
12624;BME280;6377;42.836;23.998;2024-01-30T13:20:09;97657.88;;;3.04;52.68
12624;BME280;6377;42.836;23.998;2024-01-30T13:22:37;97620.31;;;2.73;52.88
12624;BME280;6377;42.836;23.998;2024-01-30T13:25:07;97620.81;;;2.49;51.94
12624;BME280;6377;42.836;23.998;2024-01-30T13:27:35;97651.34;;;2.79;52.33
12624;BME280;6377;42.836;23.998;2024-01-30T13:30:02;97618.13;;;2.66;53.31
12624;BME280;6377;42.836;23.998;2024-01-30T13:32:30;97603.38;;;2.49;52.61
12624;BME280;6377;42.836;23.998;2024-01-30T13:34:58;97617.72;;;2.58;52.90
12624;BME280;6377;42.836;23.998;2024-01-30T13:37:25;97569.63;;;2.29;52.66
12624;BME280;6377;42.836;23.998;2024-01-30T13:39:52;97614.09;;;2.60;52.87
12624;BME280;6377;42.836;23.998;2024-01-30T13:42:21;97632.72;;;2.70;52.77
12624;BME280;6377;42.836;23.998;2024-01-30T13:44:49;97600.00;;;2.47;52.58